createdAt,value
2022-09-14T00:29:14.133Z,78
2022-09-14T00:39:15.075Z,78
2022-09-14T00:49:15.793Z,78
2022-09-14T00:59:16.585Z,78
2022-09-14T01:09:17.157Z,78
2022-09-14T01:19:17.909Z,78
2022-09-14T01:29:18.959Z,79
2022-09-14T01:39:19.323Z,79
2022-09-14T01:49:19.928Z,79
2022-09-14T01:59:20.866Z,79
2022-09-14T02:09:21.632Z,79
2022-09-14T02:19:23.883Z,79
2022-09-14T02:29:23.048Z,80
2022-09-14T02:39:23.695Z,80
2022-09-14T02:49:23.869Z,80
2022-09-14T02:59:24.551Z,80
2022-09-14T03:09:25.509Z,82
2022-09-14T03:19:25.888Z,83
2022-09-14T03:29:26.946Z,83
2022-09-14T03:39:27.862Z,83
2022-09-14T03:49:28.466Z,83
2022-09-14T03:59:29.321Z,83
2022-09-14T04:09:29.379Z,84
2022-09-14T04:19:30.362Z,85
2022-09-14T04:29:31.428Z,86
2022-09-14T04:39:32.241Z,86
2022-09-14T04:49:33.059Z,87
2022-09-14T04:59:40.749Z,88
2022-09-14T05:09:40.029Z,89
2022-09-14T05:19:41.077Z,89
2022-09-14T05:29:41.176Z,90
2022-09-14T05:39:41.847Z,91
2022-09-14T05:49:42.057Z,92
2022-09-14T05:59:43.099Z,93
2022-09-14T06:09:43.417Z,94
2022-09-14T06:19:43.596Z,94
2022-09-14T06:29:44.312Z,95
2022-09-14T06:39:45.110Z,95
2022-09-14T06:49:45.400Z,96
2022-09-14T06:59:46.352Z,96
2022-09-14T07:09:46.813Z,96
2022-09-14T07:19:47.791Z,96
2022-09-14T07:29:47.952Z,97
2022-09-14T07:39:48.898Z,96
2022-09-14T07:49:49.163Z,97
2022-09-14T07:59:49.797Z,97
2022-09-14T08:09:50.179Z,97
2022-09-14T08:19:50.965Z,97
2022-09-14T08:29:51.063Z,97
2022-09-14T08:49:52.712Z,97
2022-09-14T08:59:53.316Z,97
2022-09-14T09:09:54.400Z,98
2022-09-14T09:19:55.458Z,97
2022-09-14T09:29:56.020Z,97
2022-09-14T09:39:56.240Z,97
2022-09-14T09:49:56.954Z,97
2022-09-14T09:59:57.110Z,98
2022-09-14T10:09:57.791Z,98
2022-09-14T10:19:58.030Z,98
2022-09-14T10:29:58.297Z,98
2022-09-14T10:39:59.325Z,98
2022-09-14T10:50:05.107Z,98
2022-09-14T11:00:05.303Z,98
2022-09-14T11:10:05.651Z,98
2022-09-14T11:20:05.753Z,98
2022-09-14T11:30:06.410Z,98
2022-09-14T11:40:07.358Z,98
2022-09-14T11:50:07.771Z,98
2022-09-14T12:00:08.374Z,98
2022-09-14T12:10:09.000Z,98
2022-09-14T12:20:09.443Z,98
2022-09-14T12:30:10.419Z,97
2022-09-14T12:40:11.022Z,98
2022-09-14T12:50:11.268Z,98
2022-09-14T13:00:11.617Z,98
2022-09-14T13:10:11.969Z,98
2022-09-14T13:30:13.352Z,99
2022-09-14T13:40:14.166Z,99
2022-09-14T13:50:14.761Z,99
2022-09-14T14:00:15.629Z,100
2022-09-14T14:10:19.978Z,99
2022-09-14T14:20:17.427Z,99
2022-09-14T14:30:17.917Z,99
2022-09-14T14:40:18.488Z,99
2022-09-14T14:50:19.252Z,99
2022-09-14T15:00:19.899Z,99
2022-09-14T15:10:20.241Z,99
2022-09-14T15:20:21.011Z,99
2022-09-14T15:30:21.109Z,99
2022-09-14T15:40:21.938Z,99
2022-09-14T15:50:21.944Z,99
2022-09-14T16:00:22.366Z,99
2022-09-14T16:10:22.491Z,99
2022-09-14T16:20:23.135Z,99
2022-09-14T16:30:24.009Z,99
2022-09-14T16:40:24.273Z,99
2022-09-14T16:50:25.106Z,98
2022-09-14T17:00:25.765Z,98
2022-09-14T17:10:25.956Z,98
2022-09-14T17:20:26.567Z,97
2022-09-14T17:30:26.881Z,97
2022-09-14T17:40:27.427Z,97
2022-09-14T17:50:28.396Z,98
2022-09-14T18:00:29.155Z,98
2022-09-14T18:10:30.048Z,99
2022-09-14T18:20:30.341Z,99
2022-09-14T18:30:31.261Z,100
2022-09-14T18:40:31.629Z,100
2022-09-14T18:50:32.463Z,100
2022-09-14T19:00:32.645Z,100
2022-09-14T19:10:33.343Z,100
2022-09-14T19:20:48.897Z,100
2022-09-14T19:30:35.170Z,100
2022-09-14T19:40:35.898Z,100
2022-09-14T19:50:36.482Z,100
2022-09-14T20:00:37.251Z,100
2022-09-14T20:10:38.098Z,100
2022-09-14T20:20:38.808Z,100
2022-09-14T20:30:39.001Z,100
2022-09-14T20:40:39.578Z,100
2022-09-14T20:50:40.122Z,100
2022-09-14T21:00:40.680Z,100
2022-09-14T21:10:41.376Z,100
2022-09-14T21:20:41.634Z,100
2022-09-14T21:30:42.675Z,100
2022-09-14T21:40:43.590Z,100
2022-09-14T21:50:47.211Z,100
2022-09-14T22:10:45.388Z,100
2022-09-14T22:20:45.897Z,100
2022-09-14T22:30:46.416Z,100
2022-09-14T22:40:47.059Z,100
2022-09-14T22:50:47.518Z,100
2022-09-14T23:00:47.667Z,100
2022-09-14T23:10:48.765Z,100
2022-09-14T23:20:49.397Z,100
2022-09-14T23:30:50.241Z,100
2022-09-14T23:40:50.351Z,100
2022-09-14T23:50:50.499Z,100
